createdAt,value
2023-03-27T00:01:13.548Z,15.58
2023-03-27T00:06:36.681Z,19.80
2023-03-27T00:11:59.611Z,19.32
2023-03-27T00:17:22.389Z,17.98
2023-03-27T00:22:44.632Z,12.10
2023-03-27T00:28:08.745Z,18.07
2023-03-27T00:33:31.668Z,18.00
2023-03-27T00:38:54.490Z,18.10
2023-03-27T00:44:36.484Z,21.30
2023-03-27T00:50:00.804Z,16.63
2023-03-27T00:55:26.461Z,17.03
2023-03-27T01:00:50.470Z,17.73
2023-03-27T01:06:14.727Z,18.55
2023-03-27T01:12:17.463Z,18.48
2023-03-27T01:17:59.506Z,17.60
2023-03-27T01:29:59.831Z,21.80
2023-03-27T01:36:09.293Z,21.40
2023-03-27T01:41:50.228Z,19.43
2023-03-27T01:47:20.470Z,28.43
2023-03-27T01:53:09.662Z,26.87
2023-03-27T01:58:48.342Z,27.50
2023-03-27T02:04:15.306Z,26.80
2023-03-27T02:09:51.578Z,23.17
2023-03-27T02:15:25.168Z,13.97
2023-03-27T02:20:48.720Z,22.73
2023-03-27T02:26:13.757Z,17.07
2023-03-27T02:31:59.460Z,15.93
2023-03-27T02:37:33.128Z,16.33
2023-03-27T02:43:24.989Z,15.87
2023-03-27T02:48:57.223Z,15.83
2023-03-27T02:54:30.548Z,15.23
2023-03-27T02:59:57.882Z,11.15
2023-03-27T03:05:25.406Z,13.50
2023-03-27T03:10:51.356Z,14.65
2023-03-27T03:16:14.407Z,15.87
2023-03-27T03:21:38.133Z,15.30
2023-03-27T03:27:00.869Z,12.90
2023-03-27T03:32:23.590Z,12.40
2023-03-27T03:37:49.547Z,11.20
2023-03-27T03:43:12.193Z,8.25
2023-03-27T03:48:35.194Z,5.62
2023-03-27T03:53:57.616Z,5.08
2023-03-27T03:59:22.066Z,2.85
2023-03-27T04:04:46.582Z,2.62
2023-03-27T04:10:09.465Z,2.27
2023-03-27T04:15:32.697Z,3.50
2023-03-27T04:20:55.530Z,4.30
2023-03-27T04:26:19.509Z,4.53
2023-03-27T04:31:43.427Z,3.63
2023-03-27T04:37:06.279Z,3.65
2023-03-27T04:42:29.019Z,2.53
2023-03-27T04:47:52.151Z,4.50
2023-03-27T04:53:14.460Z,4.43
2023-03-27T04:58:38.043Z,3.05
2023-03-27T05:04:02.682Z,2.00
2023-03-27T05:09:26.046Z,2.60
2023-03-27T05:14:49.002Z,4.33
2023-03-27T05:20:21.332Z,3.57
2023-03-27T05:25:59.770Z,3.30
2023-03-27T05:31:11.674Z,2.53
2023-03-27T05:36:35.800Z,2.07
2023-03-27T05:41:58.406Z,2.90
2023-03-27T05:47:21.196Z,4.40
2023-03-27T05:52:43.663Z,4.22
2023-03-27T05:58:07.782Z,3.35
2023-03-27T06:03:47.719Z,2.50
2023-03-27T06:09:10.250Z,3.43
2023-03-27T06:14:32.507Z,2.63
2023-03-27T06:19:55.467Z,5.20
2023-03-27T06:25:18.035Z,2.87
2023-03-27T06:30:42.427Z,3.10
2023-03-27T06:36:05.791Z,2.07
2023-03-27T06:41:30.922Z,2.30
2023-03-27T06:46:53.309Z,2.83
2023-03-27T06:52:16.174Z,3.35
2023-03-27T06:57:38.618Z,1.98
2023-03-27T07:03:03.055Z,4.12
2023-03-27T07:08:28.421Z,1.47
2023-03-27T07:13:50.835Z,2.10
2023-03-27T07:19:13.156Z,1.50
2023-03-27T07:24:35.461Z,1.60
2023-03-27T07:29:59.709Z,2.00
2023-03-27T07:35:22.296Z,1.82
2023-03-27T07:40:46.483Z,1.55
2023-03-27T07:46:09.522Z,2.50
2023-03-27T07:51:33.267Z,1.70
2023-03-27T07:56:55.706Z,2.42
2023-03-27T08:02:18.062Z,3.27
2023-03-27T08:07:45.571Z,2.30
2023-03-27T08:13:08.784Z,1.67
2023-03-27T08:18:31.244Z,2.52
2023-03-27T08:23:57.844Z,2.05
2023-03-27T08:29:21.331Z,3.45
2023-03-27T08:34:43.921Z,1.77
2023-03-27T08:40:10.804Z,4.87
2023-03-27T08:45:43.880Z,0.95
2023-03-27T08:51:22.998Z,5.17
2023-03-27T08:56:45.780Z,1.40
2023-03-27T09:02:59.624Z,1.53
2023-03-27T09:13:54.053Z,2.00
2023-03-27T09:19:55.961Z,1.67
2023-03-27T09:25:25.789Z,1.52
2023-03-27T09:30:51.850Z,1.23
2023-03-27T09:36:24.879Z,3.90
2023-03-27T09:41:55.757Z,1.70
2023-03-27T09:47:23.054Z,1.63
2023-03-27T09:52:49.097Z,2.27
2023-03-27T09:58:39.271Z,2.33
2023-03-27T10:04:07.801Z,1.43
2023-03-27T10:09:48.989Z,1.43
2023-03-27T10:20:49.753Z,2.23
2023-03-27T10:26:17.589Z,1.37
2023-03-27T10:31:45.713Z,0.80
2023-03-27T10:37:12.270Z,0.70
2023-03-27T10:42:37.525Z,1.67
2023-03-27T10:48:04.524Z,0.90
2023-03-27T10:53:40.927Z,0.75
2023-03-27T10:59:28.204Z,1.33
2023-03-27T11:04:54.781Z,1.00
2023-03-27T11:10:29.966Z,1.70
2023-03-27T11:16:17.532Z,1.20
2023-03-27T11:21:56.580Z,2.35
2023-03-27T11:27:32.850Z,3.50
2023-03-27T11:33:17.559Z,2.33
2023-03-27T11:38:51.669Z,1.03
2023-03-27T11:44:15.783Z,2.55
2023-03-27T11:50:11.577Z,1.60
2023-03-27T11:55:49.517Z,1.95
2023-03-27T12:01:37.862Z,1.35
2023-03-27T12:07:23.625Z,1.37
2023-03-27T12:13:03.303Z,3.83
2023-03-27T12:19:20.993Z,2.50
2023-03-27T12:24:57.415Z,1.65
2023-03-27T12:30:49.195Z,1.40
2023-03-27T12:36:16.478Z,1.40
2023-03-27T12:41:49.730Z,1.60
2023-03-27T12:47:32.028Z,2.58
2023-03-27T12:52:58.039Z,2.77
2023-03-27T12:58:24.393Z,1.77
2023-03-27T13:04:07.597Z,1.62
2023-03-27T13:10:12.954Z,1.20
2023-03-27T13:16:08.942Z,0.50
2023-03-27T13:22:00.094Z,1.45
2023-03-27T13:27:58.140Z,1.55
2023-03-27T13:33:40.201Z,1.07
2023-03-27T13:39:13.907Z,2.35
2023-03-27T13:45:08.076Z,1.37
2023-03-27T13:50:59.471Z,2.92
2023-03-27T13:56:55.642Z,2.92
2023-03-27T14:02:41.612Z,1.65
2023-03-27T14:08:37.142Z,3.55
2023-03-27T14:14:27.236Z,1.30
2023-03-27T14:20:22.544Z,1.97
2023-03-27T14:25:52.164Z,1.80
2023-03-27T14:31:19.707Z,3.33
2023-03-27T14:36:49.587Z,1.63
2023-03-27T14:42:18.097Z,2.57
2023-03-27T14:47:43.562Z,2.35
2023-03-27T14:53:09.706Z,3.00
2023-03-27T14:58:35.558Z,2.37
2023-03-27T15:03:58.522Z,2.12
2023-03-27T15:09:26.895Z,3.12
2023-03-27T15:14:52.005Z,1.57
2023-03-27T15:20:20.843Z,2.95
2023-03-27T15:26:03.759Z,1.40
2023-03-27T15:31:29.222Z,1.63
2023-03-27T15:36:55.280Z,1.07
2023-03-27T15:42:28.567Z,1.20
2023-03-27T15:47:51.573Z,1.60
2023-03-27T15:53:15.244Z,2.00
2023-03-27T15:58:48.343Z,4.70
2023-03-27T16:04:19.679Z,1.37
2023-03-27T16:09:49.765Z,1.10
2023-03-27T16:15:16.383Z,1.42
2023-03-27T16:20:45.964Z,4.30
2023-03-27T16:26:08.769Z,1.83
2023-03-27T16:31:36.184Z,1.87
2023-03-27T16:36:59.942Z,1.13
2023-03-27T16:42:26.493Z,2.42
2023-03-27T16:47:53.146Z,2.42
2023-03-27T16:53:14.244Z,2.37
2023-03-27T16:58:36.829Z,3.12
2023-03-27T17:03:59.456Z,3.00
2023-03-27T17:09:23.478Z,2.25
2023-03-27T17:14:46.287Z,3.33
2023-03-27T17:20:09.427Z,3.47
2023-03-27T17:25:31.772Z,3.17
2023-03-27T17:31:04.021Z,3.70
2023-03-27T17:36:38.786Z,3.37
2023-03-27T17:41:51.125Z,3.85
2023-03-27T17:47:13.882Z,2.95
2023-03-27T17:52:36.294Z,5.20
2023-03-27T17:58:08.748Z,6.53
2023-03-27T18:03:23.641Z,4.92
2023-03-27T18:08:47.158Z,6.25
2023-03-27T18:14:09.662Z,18.27
2023-03-27T18:19:32.866Z,8.63
2023-03-27T18:24:55.323Z,8.23
2023-03-27T18:30:19.201Z,8.35
2023-03-27T18:35:43.173Z,9.45
2023-03-27T18:41:07.273Z,10.60
2023-03-27T18:46:29.946Z,11.95
2023-03-27T18:51:52.718Z,10.23
2023-03-27T18:57:17.891Z,11.10
2023-03-27T19:02:41.851Z,7.78
2023-03-27T19:08:04.241Z,7.22
2023-03-27T19:13:26.544Z,9.08
2023-03-27T19:18:50.084Z,11.75
2023-03-27T19:24:12.585Z,9.98
2023-03-27T19:29:36.053Z,9.43
2023-03-27T19:34:58.426Z,11.45
2023-03-27T19:40:21.906Z,10.53
2023-03-27T19:45:46.014Z,9.67
2023-03-27T19:51:18.604Z,12.95
2023-03-27T20:01:58.081Z,11.35
2023-03-27T20:07:20.997Z,14.87
2023-03-27T20:12:44.268Z,68.05
2023-03-27T20:18:06.667Z,25.43
2023-03-27T20:23:31.658Z,14.90
2023-03-27T20:28:54.431Z,15.13
2023-03-27T20:34:20.179Z,14.65
2023-03-27T20:39:47.575Z,12.15
2023-03-27T20:45:11.652Z,11.80
2023-03-27T20:50:36.229Z,12.78
2023-03-27T20:56:05.538Z,15.05
2023-03-27T21:01:29.575Z,17.40
2023-03-27T21:06:55.624Z,23.27
2023-03-27T21:12:18.310Z,22.93
2023-03-27T21:17:40.779Z,39.75
2023-03-27T21:23:03.061Z,41.33
2023-03-27T21:28:25.925Z,45.40
2023-03-27T21:33:48.675Z,46.65
2023-03-27T21:39:11.102Z,47.38
2023-03-27T21:44:33.343Z,45.45
2023-03-27T21:49:55.740Z,36.20
2023-03-27T21:55:18.049Z,40.78
2023-03-27T22:00:40.308Z,40.23
2023-03-27T22:11:26.587Z,30.75
2023-03-27T22:16:48.874Z,39.75
2023-03-27T22:22:11.180Z,33.33
2023-03-27T22:27:33.518Z,40.28
2023-03-27T22:32:55.850Z,38.60
2023-03-27T22:38:18.144Z,32.03
2023-03-27T22:43:41.940Z,33.65
2023-03-27T22:49:08.551Z,36.35
2023-03-27T22:54:31.730Z,43.48
2023-03-27T22:59:54.233Z,30.05
2023-03-27T23:05:16.729Z,30.12
2023-03-27T23:10:40.076Z,21.93
2023-03-27T23:16:03.019Z,22.98
2023-03-27T23:21:26.881Z,25.52
2023-03-27T23:26:49.365Z,25.82
2023-03-27T23:32:12.347Z,21.60
2023-03-27T23:37:35.552Z,23.45
2023-03-27T23:42:57.786Z,27.95
2023-03-27T23:48:20.028Z,22.40
2023-03-27T23:53:43.464Z,22.32
2023-03-27T23:59:05.688Z,23.25
